Time,TemperatureF,DewpointF,PressureIn,WindDirection,WindDirectionDegrees,WindSpeedMPH,WindSpeedGustMPH,Humidity,HourlyPrecipIn,Conditions,Clouds,dailyrainin,SoftwareType,DateUTC
2013-07-12 00:00:00,77.7,72.1,30.00,SSW,202,3.5,3.5,83,0.00,FEW,,0.00,WeatherDisplay:10.37,2013-07-12 04:00:00,
2013-07-12 00:01:00,77.7,72.1,30.00,SSW,202,3.5,3.5,83,0.00,FEW,,0.00,WeatherDisplay:10.37,2013-07-12 04:01:00,
2013-07-12 00:06:00,77.9,72.3,30.00,SSW,202,2.6,2.6,83,0.00,FEW,,0.00,WeatherDisplay:10.37,2013-07-12 04:06:00,
2013-07-12 00:11:00,77.9,72.3,30.00,SSW,202,4.6,4.6,83,0.00,FEW,,0.00,WeatherDisplay:10.37,2013-07-12 04:11:00,
2013-07-12 00:16:00,77.9,72.7,30.00,SW,225,2.3,2.3,84,0.00,FEW,,0.00,WeatherDisplay:10.37,2013-07-12 04:16:00,
2013-07-12 00:21:00,77.9,72.7,30.00,South,180,2.3,2.3,84,0.00,FEW,,0.00,WeatherDisplay:10.37,2013-07-12 04:21:00,
2013-07-12 00:26:00,77.7,72.1,30.00,SSW,202,2.3,2.3,83,0.00,FEW,,0.00,WeatherDisplay:10.37,2013-07-12 04:26:00,
2013-07-12 00:31:00,77.7,72.5,30.00,SSE,158,2.3,2.3,84,0.00,FEW,,0.00,WeatherDisplay:10.37,2013-07-12 04:31:00,
2013-07-12 00:36:00,77.7,72.5,30.00,SSE,158,3.5,3.5,84,0.00,FEW,,0.00,WeatherDisplay:10.37,2013-07-12 04:36:00,
2013-07-12 00:41:00,77.7,72.8,30.00,SSW,202,3.5,3.5,85,0.00,FEW,,0.00,WeatherDisplay:10.37,2013-07-12 04:41:00,
2013-07-12 00:46:00,77.5,72.3,30.00,South,180,2.3,2.3,84,0.00,FEW,,0.00,WeatherDisplay:10.37,2013-07-12 04:46:00,
2013-07-12 00:51:00,77.5,72.7,29.99,SSE,158,2.3,2.3,85,0.00,FEW,,0.00,WeatherDisplay:10.37,2013-07-12 04:51:00,
2013-07-12 00:56:00,77.5,72.7,29.99,SSW,202,3.5,3.5,85,0.00,FEW,,0.00,WeatherDisplay:10.37,2013-07-12 04:56:00,
2013-07-12 01:01:00,77.5,72.7,29.99,SSW,202,2.3,2.3,85,0.00,FEW,,0.00,WeatherDisplay:10.37,2013-07-12 05:01:00,
2013-07-12 01:06:00,77.5,72.7,30.00,SSW,202,1.1,1.1,85,0.00,FEW,,0.00,WeatherDisplay:10.37,2013-07-12 05:06:00,
2013-07-12 01:11:00,77.5,72.7,30.00,SW,225,3.5,3.5,85,0.00,FEW,,0.00,WeatherDisplay:10.37,2013-07-12 05:11:00,
2013-07-12 01:16:00,77.5,72.7,30.00,South,180,3.5,3.5,85,0.00,FEW,,0.00,WeatherDisplay:10.37,2013-07-12 05:16:00,
2013-07-12 01:22:00,77.4,72.5,30.00,SSW,202,1.1,1.1,85,0.00,FEW,,0.00,WeatherDisplay:10.37,2013-07-12 05:22:00,
2013-07-12 01:27:00,77.4,72.5,29.99,SSW,202,2.3,2.3,85,0.00,FEW,,0.00,WeatherDisplay:10.37,2013-07-12 05:27:00,
2013-07-12 01:32:00,77.4,72.8,29.99,South,180,1.1,1.1,86,0.00,FEW,,0.00,WeatherDisplay:10.37,2013-07-12 05:32:00,
2013-07-12 01:37:00,77.4,72.8,29.99,SSW,202,4.6,4.6,86,0.00,FEW,,0.00,WeatherDisplay:10.37,2013-07-12 05:37:00,
2013-07-12 01:42:00,77.4,72.8,29.99,SSE,158,3.8,3.8,86,0.00,FEW,,0.00,WeatherDisplay:10.37,2013-07-12 05:42:00,
2013-07-12 01:47:00,77.4,72.8,29.99,SSW,202,3.5,3.5,86,0.00,FEW,,0.00,WeatherDisplay:10.37,2013-07-12 05:47:00,
2013-07-12 01:52:00,77.4,72.8,29.98,SE,135,2.3,2.3,86,0.00,FEW,,0.00,WeatherDisplay:10.37,2013-07-12 05:52:00,
2013-07-12 01:57:00,77.2,72.7,29.98,South,180,2.3,2.3,86,0.00,FEW,,0.00,WeatherDisplay:10.37,2013-07-12 05:57:00,
2013-07-12 02:02:00,77.2,72.7,29.98,SSE,158,2.4,2.4,86,0.00,FEW,,0.00,WeatherDisplay:10.37,2013-07-12 06:02:00,
2013-07-12 02:07:00,77.0,72.5,29.98,South,180,1.1,0.0,86,0.00,FEW,,0.00,WeatherDisplay:10.37,2013-07-12 06:07:00,
2013-07-12 02:12:00,77.0,72.8,29.98,SSW,202,2.3,2.3,87,0.00,FEW,,0.00,WeatherDisplay:10.37,2013-07-12 06:12:00,
2013-07-12 02:17:00,77.0,72.8,29.98,WSW,248,1.1,1.1,87,0.00,FEW,,0.00,WeatherDisplay:10.37,2013-07-12 06:17:00,
2013-07-12 02:22:00,77.0,72.8,29.98,SW,225,2.3,2.3,87,0.00,FEW,,0.00,WeatherDisplay:10.37,2013-07-12 06:22:00,
2013-07-12 02:27:00,77.0,72.8,29.97,SW,225,2.3,2.3,87,0.00,FEW,,0.00,WeatherDisplay:10.37,2013-07-12 06:27:00,
2013-07-12 02:32:00,76.8,72.7,29.98,South,180,2.3,2.3,87,0.00,FEW,,0.00,WeatherDisplay:10.37,2013-07-12 06:32:00,
2013-07-12 02:37:00,76.8,72.7,29.97,SW,225,3.5,3.5,87,0.00,FEW,,0.00,WeatherDisplay:10.37,2013-07-12 06:37:00,
2013-07-12 02:42:00,76.8,72.7,29.97,SSW,202,3.8,3.8,87,0.00,FEW,,0.00,WeatherDisplay:10.37,2013-07-12 06:42:00,
2013-07-12 02:47:00,76.8,72.7,29.97,SSE,158,2.3,2.3,87,0.00,FEW,,0.00,WeatherDisplay:10.37,2013-07-12 06:47:00,
2013-07-12 02:52:00,76.6,72.5,29.97,SW,225,3.5,3.5,87,0.00,FEW,,0.00,WeatherDisplay:10.37,2013-07-12 06:52:00,
2013-07-12 02:57:00,76.8,72.3,29.97,SW,225,2.3,2.3,86,0.00,FEW,,0.00,WeatherDisplay:10.37,2013-07-12 06:57:00,
2013-07-12 03:02:00,77.0,72.1,29.97,SSW,202,4.0,4.0,85,0.00,FEW,,0.00,WeatherDisplay:10.37,2013-07-12 07:02:00,
2013-07-12 03:07:00,77.0,72.1,29.97,SW,225,2.4,2.4,85,0.00,FEW,,0.00,WeatherDisplay:10.37,2013-07-12 07:07:00,
2013-07-12 03:12:00,77.0,72.1,29.96,WSW,248,4.6,4.6,85,0.00,FEW,,0.00,WeatherDisplay:10.37,2013-07-12 07:12:00,
2013-07-12 03:17:00,76.8,71.6,29.97,SW,225,4.6,4.6,84,0.00,FEW,,0.00,WeatherDisplay:10.37,2013-07-12 07:17:00,
2013-07-12 03:22:00,76.8,71.6,29.96,SW,225,4.6,4.6,84,0.00,FEW,,0.00,WeatherDisplay:10.37,2013-07-12 07:22:00,
2013-07-12 03:27:00,76.6,71.4,29.97,SW,225,2.3,2.3,84,0.00,FEW,,0.00,WeatherDisplay:10.37,2013-07-12 07:27:00,
2013-07-12 03:32:00,76.5,71.3,29.96,SW,225,1.1,0.0,84,0.00,FEW,,0.00,WeatherDisplay:10.37,2013-07-12 07:32:00,
2013-07-12 03:37:00,76.3,71.4,29.96,SW,225,1.4,1.4,85,0.00,FEW,,0.00,WeatherDisplay:10.37,2013-07-12 07:37:00,
2013-07-12 03:42:00,76.3,71.4,29.96,WSW,248,2.3,2.3,85,0.00,FEW,,0.00,WeatherDisplay:10.37,2013-07-12 07:42:00,
2013-07-12 03:47:00,76.3,71.4,29.96,SW,225,2.3,2.3,85,0.00,FEW,,0.00,WeatherDisplay:10.37,2013-07-12 07:47:00,
2013-07-12 03:52:00,76.1,71.3,29.96,WSW,248,1.1,1.1,85,0.00,FEW,,0.00,WeatherDisplay:10.37,2013-07-12 07:52:00,
2013-07-12 03:57:00,75.9,71.1,29.96,WSW,248,1.1,1.1,85,0.00,FEW,,0.00,WeatherDisplay:10.37,2013-07-12 07:57:00,
2013-07-12 04:02:00,75.9,71.1,29.96,WSW,248,1.1,1.1,85,0.00,CLR,,0.00,WeatherDisplay:10.37,2013-07-12 08:02:00,
2013-07-12 04:07:00,75.7,71.3,29.96,WSW,248,1.1,1.1,86,0.00,CLR,,0.00,WeatherDisplay:10.37,2013-07-12 08:07:00,
2013-07-12 04:12:00,75.7,71.3,29.96,WSW,248,1.1,1.1,86,0.00,CLR,,0.00,WeatherDisplay:10.37,2013-07-12 08:12:00,
2013-07-12 04:17:00,75.6,70.7,29.96,SSE,158,2.3,2.3,85,0.00,CLR,,0.00,WeatherDisplay:10.37,2013-07-12 08:17:00,
2013-07-12 04:22:00,75.6,71.1,29.96,South,180,1.1,1.1,86,0.00,CLR,,0.00,WeatherDisplay:10.37,2013-07-12 08:22:00,
2013-07-12 04:27:00,75.4,70.9,29.96,SSW,202,1.1,0.0,86,0.00,CLR,,0.00,WeatherDisplay:10.37,2013-07-12 08:27:00,
2013-07-12 04:32:00,75.2,70.7,29.96,SSW,202,2.3,2.3,86,0.00,CLR,,0.00,WeatherDisplay:10.37,2013-07-12 08:32:00,
2013-07-12 04:37:00,75.2,70.7,29.96,SSW,202,1.1,1.1,86,0.00,CLR,,0.00,WeatherDisplay:10.37,2013-07-12 08:37:00,
2013-07-12 04:42:00,75.2,70.7,29.96,SSW,202,1.1,1.1,86,0.00,CLR,,0.00,WeatherDisplay:10.37,2013-07-12 08:42:00,
2013-07-12 04:47:00,75.2,71.1,29.96,SSW,202,1.1,1.4,87,0.00,CLR,,0.00,WeatherDisplay:10.37,2013-07-12 08:47:00,
2013-07-12 04:53:00,75.2,71.1,29.97,SSE,158,2.3,2.3,87,0.00,CLR,,0.00,WeatherDisplay:10.37,2013-07-12 08:53:00,
2013-07-12 04:57:00,75.2,71.1,29.97,SSE,158,2.3,2.3,87,0.00,CLR,,0.00,WeatherDisplay:10.37,2013-07-12 08:57:00,
2013-07-12 05:03:00,75.2,71.1,29.97,South,180,3.5,3.5,87,0.00,CLR,,0.00,WeatherDisplay:10.37,2013-07-12 09:03:00,
2013-07-12 05:08:00,75.4,71.2,29.97,SE,135,2.3,2.3,87,0.00,CLR,,0.00,WeatherDisplay:10.37,2013-07-12 09:08:00,
2013-07-12 05:13:00,75.4,71.2,29.96,SSE,158,2.3,2.3,87,0.00,CLR,,0.00,WeatherDisplay:10.37,2013-07-12 09:13:00,
2013-07-12 05:18:00,75.4,71.2,29.96,SSE,158,1.1,1.1,87,0.00,CLR,,0.00,WeatherDisplay:10.37,2013-07-12 09:18:00,
2013-07-12 05:23:00,75.2,71.1,29.96,SSE,158,1.1,0.0,87,0.00,CLR,,0.00,WeatherDisplay:10.37,2013-07-12 09:23:00,
2013-07-12 05:28:00,75.0,71.2,29.97,SW,225,2.3,2.3,88,0.00,CLR,,0.00,WeatherDisplay:10.37,2013-07-12 09:28:00,
2013-07-12 05:33:00,75.0,71.2,29.97,SW,225,1.1,1.1,88,0.00,CLR,,0.00,WeatherDisplay:10.37,2013-07-12 09:33:00,
2013-07-12 05:38:00,74.8,71.0,29.97,SSW,202,1.1,1.1,88,0.00,CLR,,0.00,WeatherDisplay:10.37,2013-07-12 09:38:00,
2013-07-12 05:43:00,74.8,71.0,29.97,SSW,202,1.1,1.1,88,0.00,CLR,,0.00,WeatherDisplay:10.37,2013-07-12 09:43:00,
2013-07-12 05:48:00,74.8,71.4,29.97,SW,225,1.8,1.8,89,0.00,CLR,,0.00,WeatherDisplay:10.37,2013-07-12 09:48:00,
2013-07-12 05:53:00,74.8,71.0,29.97,WSW,248,1.1,1.1,88,0.00,CLR,,0.00,WeatherDisplay:10.37,2013-07-12 09:53:00,
2013-07-12 05:58:00,74.8,71.4,29.97,SW,225,2.3,2.3,89,0.00,CLR,,0.00,WeatherDisplay:10.37,2013-07-12 09:58:00,
2013-07-12 06:03:00,74.7,70.9,29.97,SSW,202,2.3,2.3,88,0.00,SCT,,0.00,WeatherDisplay:10.37,2013-07-12 10:03:00,
2013-07-12 06:08:00,74.7,70.9,29.97,South,180,2.3,2.3,88,0.00,SCT,,0.00,WeatherDisplay:10.37,2013-07-12 10:08:00,
2013-07-12 06:13:00,74.8,71.4,29.97,SSW,202,2.3,2.3,89,0.00,SCT,,0.00,WeatherDisplay:10.37,2013-07-12 10:13:00,
2013-07-12 06:18:00,74.8,71.4,29.97,SSW,202,2.0,2.0,89,0.00,SCT,,0.00,WeatherDisplay:10.37,2013-07-12 10:18:00,
2013-07-12 06:23:00,74.8,71.0,29.96,South,180,2.3,2.3,88,0.00,SCT,,0.00,WeatherDisplay:10.37,2013-07-12 10:23:00,
2013-07-12 06:28:00,74.8,71.4,29.96,SSW,202,1.1,1.4,89,0.00,SCT,,0.00,WeatherDisplay:10.37,2013-07-12 10:28:00,
2013-07-12 06:33:00,74.8,71.4,29.96,SW,225,2.3,2.3,89,0.00,SCT,,0.00,WeatherDisplay:10.37,2013-07-12 10:33:00,
2013-07-12 06:38:00,74.8,71.4,29.97,SW,225,1.1,0.0,89,0.00,SCT,,0.00,WeatherDisplay:10.37,2013-07-12 10:38:00,
2013-07-12 06:43:00,74.7,71.2,29.97,WSW,248,1.1,1.1,89,0.00,SCT,,0.00,WeatherDisplay:10.37,2013-07-12 10:43:00,
2013-07-12 06:48:00,74.7,71.2,29.97,WSW,248,2.3,2.3,89,0.00,SCT,,0.00,WeatherDisplay:10.37,2013-07-12 10:48:00,
2013-07-12 06:53:00,74.8,71.4,29.98,WSW,248,1.1,1.1,89,0.00,SCT,,0.00,WeatherDisplay:10.37,2013-07-12 10:53:00,
2013-07-12 06:58:00,74.8,71.0,29.98,SW,225,1.1,1.1,88,0.00,SCT,,0.00,WeatherDisplay:10.37,2013-07-12 10:58:00,
2013-07-12 07:03:00,75.0,71.2,29.98,SSW,202,1.4,1.4,88,0.00,BKN,,0.00,WeatherDisplay:10.37,2013-07-12 11:03:00,
2013-07-12 07:08:00,75.2,71.4,29.98,SSW,202,1.1,1.1,88,0.00,BKN,,0.00,WeatherDisplay:10.37,2013-07-12 11:08:00,
2013-07-12 07:13:00,75.4,71.2,29.98,South,180,3.5,3.5,87,0.00,BKN,,0.00,WeatherDisplay:10.37,2013-07-12 11:13:00,
2013-07-12 07:18:00,75.6,71.4,29.98,SSE,158,2.3,2.3,87,0.00,BKN,,0.00,WeatherDisplay:10.37,2013-07-12 11:18:00,
2013-07-12 07:23:00,75.9,71.8,29.98,SSW,202,3.5,3.5,87,0.00,BKN,,0.00,WeatherDisplay:10.37,2013-07-12 11:23:00,
2013-07-12 07:28:00,76.3,71.8,29.98,SSE,158,1.1,1.8,86,0.00,BKN,,0.00,WeatherDisplay:10.37,2013-07-12 11:28:00,
2013-07-12 07:33:00,77.0,72.5,29.98,SE,135,1.1,1.1,86,0.00,BKN,,0.00,WeatherDisplay:10.37,2013-07-12 11:33:00,
2013-07-12 07:38:00,77.7,72.5,29.98,South,180,2.3,2.3,84,0.00,BKN,,0.00,WeatherDisplay:10.37,2013-07-12 11:38:00,
2013-07-12 07:43:00,78.3,72.7,29.98,SSW,202,2.3,2.3,83,0.00,BKN,,0.00,WeatherDisplay:10.37,2013-07-12 11:43:00,
2013-07-12 07:49:00,79.0,73.4,29.99,South,180,2.3,2.3,83,0.00,BKN,,0.00,WeatherDisplay:10.37,2013-07-12 11:49:00,
2013-07-12 07:54:00,79.3,73.0,29.98,SSW,202,2.3,2.3,81,0.00,BKN,,0.00,WeatherDisplay:10.37,2013-07-12 11:54:00,
2013-07-12 07:59:00,79.9,73.5,29.99,SSW,202,1.1,1.1,81,0.00,BKN,,0.00,WeatherDisplay:10.37,2013-07-12 11:59:00,
2013-07-12 08:04:00,80.4,73.3,29.99,SSW,202,2.4,2.4,79,0.00,SCT,,0.00,WeatherDisplay:10.37,2013-07-12 12:04:00,
2013-07-12 08:09:00,80.6,73.9,29.99,South,180,2.3,2.3,80,0.00,SCT,,0.00,WeatherDisplay:10.37,2013-07-12 12:09:00,
2013-07-12 08:14:00,80.8,73.3,29.99,South,180,3.5,3.5,78,0.00,SCT,,0.00,WeatherDisplay:10.37,2013-07-12 12:14:00,
2013-07-12 08:19:00,80.6,73.5,29.99,SSE,158,2.3,2.3,79,0.00,SCT,,0.00,WeatherDisplay:10.37,2013-07-12 12:19:00,
2013-07-12 08:24:00,80.8,73.3,29.99,South,180,4.6,4.6,78,0.00,SCT,,0.00,WeatherDisplay:10.37,2013-07-12 12:24:00,
2013-07-12 08:29:00,81.0,73.1,29.99,SSW,202,3.5,3.5,77,0.00,SCT,,0.00,WeatherDisplay:10.37,2013-07-12 12:29:00,
2013-07-12 08:34:00,81.7,73.8,29.99,WSW,248,2.3,2.3,77,0.00,SCT,,0.00,WeatherDisplay:10.37,2013-07-12 12:34:00,
2013-07-12 08:39:00,82.4,74.1,29.99,SSE,158,3.5,3.5,76,0.00,SCT,,0.00,WeatherDisplay:10.37,2013-07-12 12:39:00,
2013-07-12 08:44:00,82.8,74.0,29.99,WSW,248,2.3,2.3,75,0.00,SCT,,0.00,WeatherDisplay:10.37,2013-07-12 12:44:00,
2013-07-12 08:49:00,82.8,72.4,29.99,SW,225,4.7,4.7,71,0.00,SCT,,0.00,WeatherDisplay:10.37,2013-07-12 12:49:00,
2013-07-12 08:54:00,83.1,73.2,29.99,South,180,3.5,3.5,72,0.00,SCT,,0.00,WeatherDisplay:10.37,2013-07-12 12:54:00,
2013-07-12 08:59:00,83.3,72.9,29.99,SSW,202,4.6,4.6,71,0.00,SCT,,0.00,WeatherDisplay:10.37,2013-07-12 12:59:00,
2013-07-12 09:04:00,82.9,73.8,29.99,WSW,248,4.6,4.6,74,0.00,SCT,,0.00,WeatherDisplay:10.37,2013-07-12 13:04:00,
2013-07-12 09:09:00,83.3,72.9,29.99,SSW,202,4.6,4.6,71,0.00,SCT,,0.00,WeatherDisplay:10.37,2013-07-12 13:09:00,
2013-07-12 09:14:00,83.7,72.4,29.99,SW,225,4.6,4.6,69,0.00,SCT,,0.00,WeatherDisplay:10.37,2013-07-12 13:14:00,
2013-07-12 09:19:00,83.8,72.1,29.99,West,270,2.3,3.3,68,0.00,SCT,,0.00,WeatherDisplay:10.37,2013-07-12 13:19:00,
2013-07-12 09:24:00,84.6,72.4,29.99,SSW,202,5.8,5.8,67,0.00,SCT,,0.00,WeatherDisplay:10.37,2013-07-12 13:24:00,
2013-07-12 09:29:00,84.2,71.6,29.99,WSW,248,6.2,6.2,66,0.00,SCT,,0.00,WeatherDisplay:10.37,2013-07-12 13:29:00,
2013-07-12 09:34:00,84.2,72.0,29.99,SSW,202,5.8,5.8,67,0.00,SCT,,0.00,WeatherDisplay:10.37,2013-07-12 13:34:00,
2013-07-12 09:39:00,84.7,71.7,29.99,SW,225,4.6,4.6,65,0.00,SCT,,0.00,WeatherDisplay:10.37,2013-07-12 13:39:00,
2013-07-12 09:44:00,84.7,72.1,30.00,WSW,248,4.6,4.6,66,0.00,SCT,,0.00,WeatherDisplay:10.37,2013-07-12 13:44:00,
2013-07-12 09:49:00,84.7,71.2,29.99,WSW,248,3.5,3.5,64,0.00,SCT,,0.00,WeatherDisplay:10.37,2013-07-12 13:49:00,
2013-07-12 09:54:00,85.1,72.0,29.99,SW,225,2.9,2.9,65,0.00,SCT,,0.00,WeatherDisplay:10.37,2013-07-12 13:54:00,
2013-07-12 09:59:00,85.5,72.3,29.99,South,180,3.5,3.5,65,0.00,SCT,,0.00,WeatherDisplay:10.37,2013-07-12 13:59:00,
2013-07-12 10:04:00,86.0,71.5,29.99,SSE,158,3.6,3.6,62,0.00,SCT,,0.00,WeatherDisplay:10.37,2013-07-12 14:04:00,
2013-07-12 10:09:00,85.6,71.6,29.99,SW,225,5.8,5.8,63,0.00,SCT,,0.00,WeatherDisplay:10.37,2013-07-12 14:09:00,
2013-07-12 10:14:00,85.3,71.3,29.99,SW,225,6.9,6.9,63,0.00,SCT,,0.00,WeatherDisplay:10.37,2013-07-12 14:14:00,
2013-07-12 10:19:00,85.1,71.1,29.99,SSE,158,6.0,6.0,63,0.00,SCT,,0.00,WeatherDisplay:10.37,2013-07-12 14:19:00,
2013-07-12 10:24:00,85.3,71.3,29.99,SW,225,3.5,3.5,63,0.00,SCT,,0.00,WeatherDisplay:10.37,2013-07-12 14:24:00,
2013-07-12 10:29:00,86.4,71.8,29.99,WSW,248,3.5,5.2,62,0.00,SCT,,0.00,WeatherDisplay:10.37,2013-07-12 14:29:00,
2013-07-12 10:34:00,87.1,72.5,29.99,SSW,202,5.2,5.2,62,0.00,SCT,,0.00,WeatherDisplay:10.37,2013-07-12 14:34:00,
2013-07-12 10:39:00,86.7,72.1,29.99,SW,225,6.9,6.9,62,0.00,SCT,,0.00,WeatherDisplay:10.37,2013-07-12 14:39:00,
2013-07-12 10:44:00,86.5,72.4,29.99,NW,315,1.1,1.1,63,0.00,SCT,,0.00,WeatherDisplay:10.37,2013-07-12 14:44:00,
2013-07-12 10:49:00,87.8,72.2,29.99,West,270,5.6,5.6,60,0.00,SCT,,0.00,WeatherDisplay:10.37,2013-07-12 14:49:00,
2013-07-12 10:54:00,86.7,72.6,29.99,SSE,158,3.5,3.5,63,0.00,SCT,,0.00,WeatherDisplay:10.37,2013-07-12 14:54:00,
2013-07-12 10:59:00,88.2,73.5,29.99,NE,45,3.3,3.3,62,0.00,SCT,,0.00,WeatherDisplay:10.37,2013-07-12 14:59:00,
2013-07-12 11:04:00,89.4,73.2,29.99,SSE,158,4.7,4.7,59,0.00,SCT,,0.00,WeatherDisplay:10.37,2013-07-12 15:04:00,
2013-07-12 11:09:00,88.5,73.3,29.99,NNE,22,2.3,2.3,61,0.00,SCT,,0.00,WeatherDisplay:10.37,2013-07-12 15:09:00,
2013-07-12 11:14:00,88.2,73.0,29.98,SSW,202,5.8,5.8,61,0.00,SCT,,0.00,WeatherDisplay:10.37,2013-07-12 15:14:00,
2013-07-12 11:19:00,88.2,73.0,29.98,SSE,158,4.6,4.6,61,0.00,SCT,,0.00,WeatherDisplay:10.37,2013-07-12 15:19:00,
2013-07-12 11:24:00,88.3,73.2,29.98,South,180,5.8,5.8,61,0.00,SCT,,0.00,WeatherDisplay:10.37,2013-07-12 15:24:00,
2013-07-12 11:29:00,88.5,72.4,29.98,ESE,112,4.6,4.6,59,0.00,SCT,,0.00,WeatherDisplay:10.37,2013-07-12 15:29:00,
2013-07-12 11:34:00,88.2,72.5,29.98,South,180,8.1,8.1,60,0.00,SCT,,0.00,WeatherDisplay:10.37,2013-07-12 15:34:00,
2013-07-12 11:39:00,88.5,71.9,29.98,SSE,158,6.4,6.4,58,0.00,SCT,,0.00,WeatherDisplay:10.37,2013-07-12 15:39:00,
2013-07-12 11:45:00,88.9,73.2,29.98,South,180,2.3,2.3,60,0.00,SCT,,0.00,WeatherDisplay:10.37,2013-07-12 15:45:00,
2013-07-12 11:50:00,88.9,72.2,29.98,WSW,248,6.7,6.7,58,0.00,SCT,,0.00,WeatherDisplay:10.37,2013-07-12 15:50:00,
2013-07-12 11:55:00,89.2,72.5,29.98,SW,227,3.0,7.0,58,0.00,SCT,SCT,0.00,WeatherDisplay:10.37,2013-07-12 15:55:00,
2013-07-12 12:00:00,89.0,72.3,29.98,SW,214,6.0,8.0,58,0.00,SCT,SCT,0.00,WeatherDisplay:10.37,2013-07-12 16:00:00,
2013-07-12 12:05:00,89.6,72.3,29.97,SW,225,4.7,4.7,57,0.00,SCT,,0.00,WeatherDisplay:10.37,2013-07-12 16:05:00,
2013-07-12 12:10:00,89.4,72.7,29.97,SW,225,4.6,4.6,58,0.00,SCT,,0.00,WeatherDisplay:10.37,2013-07-12 16:10:00,
2013-07-12 12:15:00,88.7,74.0,29.97,WSW,248,5.8,5.8,62,0.00,SCT,,0.00,WeatherDisplay:10.37,2013-07-12 16:15:00,
2013-07-12 12:20:00,88.0,74.3,29.97,WSW,248,8.1,8.1,64,0.00,SCT,,0.00,WeatherDisplay:10.37,2013-07-12 16:20:00,
2013-07-12 12:25:00,87.3,73.1,29.97,SW,225,11.5,11.5,63,0.00,SCT,,0.00,WeatherDisplay:10.37,2013-07-12 16:25:00,
2013-07-12 12:30:00,86.7,73.1,29.98,West,270,13.8,13.8,64,0.00,SCT,,0.00,WeatherDisplay:10.37,2013-07-12 16:30:00,
2013-07-12 12:35:00,87.1,73.0,29.98,SW,225,6.9,6.9,63,0.00,SCT,,0.00,WeatherDisplay:10.37,2013-07-12 16:35:00,
2013-07-12 12:40:00,87.1,73.0,29.97,SW,225,9.2,9.2,63,0.00,SCT,,0.00,WeatherDisplay:10.37,2013-07-12 16:40:00,
2013-07-12 12:45:00,87.4,72.8,29.97,WSW,248,9.2,9.2,62,0.00,SCT,,0.00,WeatherDisplay:10.37,2013-07-12 16:45:00,
2013-07-12 12:50:00,86.4,71.8,29.97,SW,225,10.4,10.4,62,0.00,SCT,,0.00,WeatherDisplay:10.37,2013-07-12 16:50:00,
2013-07-12 12:55:00,85.1,72.5,29.97,SW,225,9.2,9.2,66,0.00,SCT,,0.00,WeatherDisplay:10.37,2013-07-12 16:55:00,
2013-07-12 13:00:00,84.2,71.6,29.97,West,270,10.4,10.4,66,0.00,SCT,,0.00,WeatherDisplay:10.37,2013-07-12 17:00:00,
2013-07-12 13:05:00,84.2,72.0,29.97,WSW,248,8.1,8.1,67,0.00,BKN,,0.00,WeatherDisplay:10.37,2013-07-12 17:05:00,
2013-07-12 13:10:00,84.6,72.8,29.97,SW,225,6.2,6.2,68,0.00,BKN,,0.00,WeatherDisplay:10.37,2013-07-12 17:10:00,
2013-07-12 13:16:00,84.7,73.0,29.97,SW,225,5.8,5.8,68,0.00,BKN,,0.00,WeatherDisplay:10.37,2013-07-12 17:16:00,
2013-07-12 13:21:00,84.7,72.6,29.97,West,270,5.8,5.8,67,0.00,BKN,,0.00,WeatherDisplay:10.37,2013-07-12 17:21:00,
2013-07-12 13:26:00,84.4,73.1,29.97,West,270,6.9,6.9,69,0.00,BKN,,0.00,WeatherDisplay:10.37,2013-07-12 17:26:00,
2013-07-12 13:31:00,84.0,72.8,29.97,WSW,248,6.7,6.7,69,0.00,BKN,,0.00,WeatherDisplay:10.37,2013-07-12 17:31:00,
2013-07-12 13:37:00,84.4,72.7,29.97,West,270,8.1,8.1,68,0.00,BKN,,0.00,WeatherDisplay:10.37,2013-07-12 17:37:00,
2013-07-12 13:42:00,84.2,72.9,29.97,SW,225,6.9,6.9,69,0.00,BKN,,0.00,WeatherDisplay:10.37,2013-07-12 17:42:00,
2013-07-12 13:47:00,84.6,72.8,29.97,West,270,6.9,7.6,68,0.00,BKN,,0.00,WeatherDisplay:10.37,2013-07-12 17:47:00,
2013-07-12 13:53:00,84.7,72.1,29.97,West,270,7.4,7.4,66,0.00,BKN,,0.00,WeatherDisplay:10.37,2013-07-12 17:53:00,
2013-07-12 13:58:00,84.7,71.7,29.97,WSW,248,8.5,8.5,65,0.00,BKN,,0.00,WeatherDisplay:10.37,2013-07-12 17:58:00,
2013-07-12 14:03:00,84.6,71.9,29.97,SSW,202,8.1,8.1,66,0.00,BKN,,0.00,WeatherDisplay:10.37,2013-07-12 18:03:00,
2013-07-12 14:08:00,84.9,72.3,29.97,WSW,248,5.9,5.9,66,0.00,BKN,,0.00,WeatherDisplay:10.37,2013-07-12 18:08:00,
2013-07-12 14:14:00,84.9,71.8,29.97,WSW,248,5.8,5.8,65,0.00,BKN,,0.00,WeatherDisplay:10.37,2013-07-12 18:14:00,
2013-07-12 14:19:00,85.5,72.3,29.97,West,270,5.2,5.2,65,0.00,BKN,,0.00,WeatherDisplay:10.37,2013-07-12 18:19:00,
2013-07-12 14:24:00,85.8,71.3,29.96,SW,225,10.4,10.4,62,0.00,BKN,,0.00,WeatherDisplay:10.37,2013-07-12 18:24:00,
2013-07-12 14:30:00,85.5,71.4,29.97,WSW,248,5.8,8.1,63,0.00,BKN,,0.00,WeatherDisplay:10.37,2013-07-12 18:30:00,
2013-07-12 14:35:00,85.3,72.6,29.96,WSW,248,10.4,10.4,66,0.00,OVC,,0.00,WeatherDisplay:10.37,2013-07-12 18:35:00,
2013-07-12 14:40:00,85.1,72.9,29.96,WSW,248,9.2,9.2,67,0.00,OVC,,0.00,WeatherDisplay:10.37,2013-07-12 18:40:00,
2013-07-12 14:45:00,85.3,73.1,29.96,WSW,248,4.6,4.6,67,0.00,OVC,,0.00,WeatherDisplay:10.37,2013-07-12 18:45:00,
2013-07-12 14:50:00,86.0,73.8,29.97,WSW,248,3.5,3.5,67,0.00,OVC,,0.00,WeatherDisplay:10.37,2013-07-12 18:50:00,
2013-07-12 14:55:00,85.3,73.5,29.97,SW,225,3.8,3.8,68,0.00,OVC,,0.00,WeatherDisplay:10.37,2013-07-12 18:55:00,
2013-07-12 15:00:00,84.2,73.3,29.97,West,270,4.6,4.6,70,0.00,OVC,,0.00,WeatherDisplay:10.37,2013-07-12 19:00:00,
2013-07-12 15:05:00,83.1,73.2,29.97,WSW,248,9.2,9.2,72,0.00,OVC,,0.00,WeatherDisplay:10.37,2013-07-12 19:05:00,
2013-07-12 15:11:00,82.9,72.6,29.97,WSW,248,8.3,8.3,71,0.00,OVC,,0.00,WeatherDisplay:10.37,2013-07-12 19:11:00,
2013-07-12 15:16:00,81.9,72.8,29.97,SW,225,5.6,5.6,74,0.00,OVC,,0.00,WeatherDisplay:10.37,2013-07-12 19:16:00,
2013-07-12 15:21:00,81.3,73.0,29.97,WSW,248,3.5,3.5,76,0.01,RA,,0.01,WeatherDisplay:10.37,2013-07-12 19:21:00,
2013-07-12 15:26:00,80.8,73.3,29.97,SW,225,6.9,6.9,78,0.01,RA,,0.02,WeatherDisplay:10.37,2013-07-12 19:26:00,
2013-07-12 15:31:00,80.1,74.1,29.97,SSW,202,4.6,4.6,82,0.03,RA,,0.03,WeatherDisplay:10.37,2013-07-12 19:31:00,
2013-07-12 15:36:00,79.2,73.5,29.97,SE,135,5.8,5.8,83,0.03,RA,,0.03,WeatherDisplay:10.37,2013-07-12 19:36:00,
2013-07-12 15:41:00,78.8,73.6,29.98,SSW,202,4.6,4.9,84,0.03,OVC,,0.03,WeatherDisplay:10.37,2013-07-12 19:41:00,
2013-07-12 15:46:00,78.1,72.8,29.98,SSE,158,3.5,3.5,84,0.05,RA,,0.05,WeatherDisplay:10.37,2013-07-12 19:46:00,
2013-07-12 15:51:00,78.1,73.2,29.97,SSW,202,3.5,3.5,85,0.07,RA,,0.07,WeatherDisplay:10.37,2013-07-12 19:51:00,
2013-07-12 15:57:00,78.1,73.2,29.97,SSW,202,1.1,1.1,85,0.08,RA,,0.08,WeatherDisplay:10.37,2013-07-12 19:57:00,
2013-07-12 16:02:00,78.1,72.8,29.97,SSW,202,1.1,0.0,84,0.09,RA,,0.09,WeatherDisplay:10.37,2013-07-12 20:02:00,
2013-07-12 16:07:00,78.4,73.2,29.96,NNE,22,1.1,1.1,84,0.09,-RA,,0.09,WeatherDisplay:10.37,2013-07-12 20:07:00,
2013-07-12 16:12:00,78.4,73.6,29.95,North,0,1.1,1.1,85,0.10,-RA,,0.10,WeatherDisplay:10.37,2013-07-12 20:12:00,
2013-07-12 16:17:00,78.6,73.7,29.95,North,0,1.1,0.0,85,0.10,-RA,,0.10,WeatherDisplay:10.37,2013-07-12 20:17:00,
2013-07-12 16:22:00,78.8,73.6,29.95,NW,315,1.4,1.4,84,0.10,-RA,,0.11,WeatherDisplay:10.37,2013-07-12 20:22:00,
2013-07-12 16:27:00,79.2,74.3,29.95,NNW,338,1.1,1.1,85,0.09,-RA,,0.11,WeatherDisplay:10.37,2013-07-12 20:27:00,
2013-07-12 16:32:00,79.5,74.6,29.95,NW,315,2.3,2.3,85,0.09,-RA,,0.12,WeatherDisplay:10.37,2013-07-12 20:32:00,
2013-07-12 16:38:00,79.5,74.3,29.95,NNW,338,1.1,1.1,84,0.09,-RA,,0.12,WeatherDisplay:10.37,2013-07-12 20:38:00,
2013-07-12 16:43:00,79.5,73.2,29.95,NW,315,2.3,2.3,81,0.08,-RA,,0.12,WeatherDisplay:10.37,2013-07-12 20:43:00,
2013-07-12 16:48:00,79.9,73.5,29.95,NNW,338,1.1,1.1,81,0.06,-RA,,0.12,WeatherDisplay:10.37,2013-07-12 20:48:00,
2013-07-12 16:53:00,80.4,73.7,29.96,NNW,338,0.0,0.0,80,0.05,-RA,,0.12,WeatherDisplay:10.37,2013-07-12 20:53:00,
2013-07-12 16:59:00,80.6,73.9,29.96,NNW,338,0.0,0.0,80,0.04,-RA,,0.12,WeatherDisplay:10.37,2013-07-12 20:59:00,
2013-07-12 17:04:00,81.3,74.6,29.97,NNW,338,0.0,0.0,80,0.03,-RA,,0.12,WeatherDisplay:10.37,2013-07-12 21:04:00,
2013-07-12 17:09:00,81.3,74.2,29.96,NNW,338,1.1,1.1,79,0.03,-RA,,0.12,WeatherDisplay:10.37,2013-07-12 21:09:00,
2013-07-12 17:14:00,81.3,74.6,29.96,NNW,338,0.0,0.0,80,0.02,-RA,,0.12,WeatherDisplay:10.37,2013-07-12 21:14:00,
2013-07-12 17:19:00,80.8,73.7,29.96,NNE,22,2.4,2.4,79,0.01,-RA,,0.12,WeatherDisplay:10.37,2013-07-12 21:19:00,
2013-07-12 17:25:00,80.6,73.9,29.95,NE,45,2.3,2.3,80,0.01,-RA,,0.12,WeatherDisplay:10.37,2013-07-12 21:25:00,
2013-07-12 17:30:00,80.6,73.9,29.95,ENE,68,2.9,2.9,80,0.01,-RA,,0.12,WeatherDisplay:10.37,2013-07-12 21:30:00,
2013-07-12 17:35:00,80.6,73.5,29.94,NE,45,2.3,2.3,79,0.00,-RA,,0.12,WeatherDisplay:10.37,2013-07-12 21:35:00,
2013-07-12 17:40:00,80.8,73.7,29.94,ENE,68,2.3,2.3,79,0.00,-RA,,0.12,WeatherDisplay:10.37,2013-07-12 21:40:00,
2013-07-12 17:45:00,81.0,73.5,29.94,NE,45,2.6,2.6,78,0.00,-RA,,0.12,WeatherDisplay:10.37,2013-07-12 21:45:00,
2013-07-12 17:50:00,81.0,72.3,29.95,NNW,338,2.3,2.3,75,0.00,-RA,,0.12,WeatherDisplay:10.37,2013-07-12 21:50:00,
2013-07-12 17:55:00,81.3,73.0,29.95,NNW,338,1.1,1.1,76,0.00,-RA,,0.12,WeatherDisplay:10.37,2013-07-12 21:55:00,
2013-07-12 18:01:00,82.0,74.5,29.95,NNW,338,0.0,0.0,78,0.00,-RA,,0.12,WeatherDisplay:10.37,2013-07-12 22:01:00,
2013-07-12 18:06:00,82.0,73.7,29.94,NNE,22,3.5,3.5,76,0.00,-RA,,0.12,WeatherDisplay:10.37,2013-07-12 22:06:00,
2013-07-12 18:11:00,82.0,74.1,29.95,East,90,0.7,0.7,77,0.00,-RA,,0.12,WeatherDisplay:10.37,2013-07-12 22:11:00,
2013-07-12 18:16:00,82.2,74.3,29.95,ESE,112,2.3,2.3,77,0.00,-RA,,0.12,WeatherDisplay:10.37,2013-07-12 22:16:00,
2013-07-12 18:22:00,82.4,74.5,29.95,East,90,2.3,2.3,77,0.00,-RA,,0.12,WeatherDisplay:10.37,2013-07-12 22:22:00,
2013-07-12 18:27:00,82.4,74.8,29.95,NE,45,2.3,2.3,78,0.00,-RA,,0.12,WeatherDisplay:10.37,2013-07-12 22:27:00,
2013-07-12 18:32:00,82.0,74.5,29.95,ENE,68,3.5,3.5,78,0.00,OVC,,0.12,WeatherDisplay:10.37,2013-07-12 22:32:00,
2013-07-12 18:37:00,81.9,73.9,29.94,East,90,2.3,2.3,77,0.00,OVC,,0.12,WeatherDisplay:10.37,2013-07-12 22:37:00,
2013-07-12 18:42:00,82.2,74.7,29.94,East,90,2.4,2.4,78,0.00,OVC,,0.12,WeatherDisplay:10.37,2013-07-12 22:42:00,
2013-07-12 18:47:00,82.0,74.5,29.94,East,90,3.5,3.5,78,0.00,OVC,,0.12,WeatherDisplay:10.37,2013-07-12 22:47:00,
2013-07-12 18:53:00,81.5,74.4,29.94,SE,135,4.6,4.6,79,0.00,OVC,,0.12,WeatherDisplay:10.37,2013-07-12 22:53:00,
2013-07-12 18:58:00,81.1,73.6,29.94,East,90,4.6,4.6,78,0.00,OVC,,0.12,WeatherDisplay:10.37,2013-07-12 22:58:00,
2013-07-12 19:03:00,81.1,73.6,29.94,East,90,2.3,2.3,78,0.00,OVC,,0.12,WeatherDisplay:10.37,2013-07-12 23:03:00,
2013-07-12 19:08:00,81.1,74.0,29.95,ESE,112,2.3,2.3,79,0.00,BKN,,0.12,WeatherDisplay:10.37,2013-07-12 23:08:00,
2013-07-12 19:13:00,81.0,73.5,29.94,ESE,112,3.5,3.5,78,0.00,BKN,,0.12,WeatherDisplay:10.37,2013-07-12 23:13:00,
2013-07-12 19:19:00,80.6,73.1,29.95,ESE,112,4.6,4.6,78,0.00,BKN,,0.12,WeatherDisplay:10.37,2013-07-12 23:19:00,
2013-07-12 19:24:00,80.6,73.5,29.95,ESE,112,4.6,4.6,79,0.00,BKN,,0.12,WeatherDisplay:10.37,2013-07-12 23:24:00,
2013-07-12 19:29:00,80.6,74.2,29.95,East,90,5.8,5.8,81,0.00,BKN,,0.12,WeatherDisplay:10.37,2013-07-12 23:29:00,
2013-07-12 19:34:00,80.2,73.9,29.95,ESE,112,5.8,5.8,81,0.00,BKN,,0.12,WeatherDisplay:10.37,2013-07-12 23:34:00,
2013-07-12 19:39:00,80.1,73.7,29.95,East,90,5.8,5.8,81,0.00,BKN,,0.12,WeatherDisplay:10.37,2013-07-12 23:39:00,
2013-07-12 19:44:00,79.9,73.5,29.95,SSE,158,4.6,4.6,81,0.00,BKN,,0.12,WeatherDisplay:10.37,2013-07-12 23:44:00,
2013-07-12 19:49:00,80.1,73.7,29.95,ESE,112,2.3,2.3,81,0.00,BKN,,0.12,WeatherDisplay:10.37,2013-07-12 23:49:00,
2013-07-12 19:54:00,79.9,73.5,29.95,East,90,5.8,5.8,81,0.00,BKN,,0.12,WeatherDisplay:10.37,2013-07-12 23:54:00,
2013-07-12 19:59:00,79.7,73.3,29.95,ESE,112,4.6,4.6,81,0.00,BKN,,0.12,WeatherDisplay:10.37,2013-07-12 23:59:00,
2013-07-12 20:05:00,79.7,73.3,29.95,ESE,112,4.9,4.9,81,0.00,BKN,,0.12,WeatherDisplay:10.37,2013-07-13 00:05:00,
2013-07-12 20:10:00,79.5,73.2,29.95,SE,134,3.0,6.0,81,0.00,BKN,BKN,0.12,WeatherDisplay:10.37,2013-07-13 00:10:00,
2013-07-12 20:15:00,79.5,73.2,29.95,SE,135,3.5,3.5,81,0.00,BKN,,0.12,WeatherDisplay:10.37,2013-07-13 00:15:00,
2013-07-12 20:20:00,79.2,72.8,29.95,ESE,112,3.5,3.5,81,0.00,BKN,,0.12,WeatherDisplay:10.37,2013-07-13 00:20:00,
2013-07-12 20:25:00,79.0,73.0,29.95,SSE,158,3.5,3.5,82,0.00,BKN,,0.12,WeatherDisplay:10.37,2013-07-13 00:25:00,
2013-07-12 20:31:00,78.8,72.5,29.95,SSE,158,4.6,4.6,81,0.00,BKN,,0.12,WeatherDisplay:10.37,2013-07-13 00:31:00,
2013-07-12 20:36:00,78.8,72.8,29.95,SE,135,4.7,4.7,82,0.00,BKN,,0.12,WeatherDisplay:10.37,2013-07-13 00:36:00,
2013-07-12 20:41:00,78.8,72.8,29.95,SE,135,3.5,3.5,82,0.00,BKN,,0.12,WeatherDisplay:10.37,2013-07-13 00:41:00,
2013-07-12 20:46:00,78.6,72.7,29.95,South,180,1.1,0.0,82,0.00,BKN,,0.12,WeatherDisplay:10.37,2013-07-13 00:46:00,
2013-07-12 20:51:00,78.4,72.5,29.95,ESE,112,2.3,2.3,82,0.00,BKN,,0.12,WeatherDisplay:10.37,2013-07-13 00:51:00,
2013-07-12 20:56:00,78.3,72.7,29.96,East,90,2.3,2.3,83,0.00,BKN,,0.12,WeatherDisplay:10.37,2013-07-13 00:56:00,
2013-07-12 21:01:00,78.1,72.5,29.96,SE,135,2.3,2.3,83,0.00,BKN,,0.12,WeatherDisplay:10.37,2013-07-13 01:01:00,
2013-07-12 21:06:00,78.1,72.5,29.96,East,90,3.5,3.5,83,0.00,OVC,,0.12,WeatherDisplay:10.37,2013-07-13 01:06:00,
2013-07-12 21:12:00,77.9,72.3,29.96,ESE,112,2.3,3.1,83,0.00,OVC,,0.12,WeatherDisplay:10.37,2013-07-13 01:12:00,
2013-07-12 21:17:00,77.7,72.5,29.97,ESE,112,2.3,2.3,84,0.00,OVC,,0.12,WeatherDisplay:10.37,2013-07-13 01:17:00,
2013-07-12 21:22:00,77.7,72.5,29.97,ESE,112,4.7,4.7,84,0.00,OVC,,0.12,WeatherDisplay:10.37,2013-07-13 01:22:00,
2013-07-12 21:27:00,77.5,72.3,29.97,SE,135,3.5,3.5,84,0.00,OVC,,0.12,WeatherDisplay:10.37,2013-07-13 01:27:00,
2013-07-12 21:32:00,77.5,72.3,29.98,SE,135,4.6,4.6,84,0.00,OVC,,0.12,WeatherDisplay:10.37,2013-07-13 01:32:00,
2013-07-12 21:38:00,77.5,72.3,29.98,SE,135,2.4,2.4,84,0.00,OVC,,0.12,WeatherDisplay:10.37,2013-07-13 01:38:00,
2013-07-12 21:43:00,77.5,72.3,29.98,SE,135,2.3,2.3,84,0.00,OVC,,0.12,WeatherDisplay:10.37,2013-07-13 01:43:00,
2013-07-12 21:48:00,77.5,72.3,29.98,SE,135,3.5,3.5,84,0.00,OVC,,0.12,WeatherDisplay:10.37,2013-07-13 01:48:00,
2013-07-12 21:53:00,77.5,72.3,29.98,SE,135,3.5,3.5,84,0.00,OVC,,0.12,WeatherDisplay:10.37,2013-07-13 01:53:00,
2013-07-12 21:58:00,77.5,72.0,29.98,SE,135,3.5,3.5,83,0.00,OVC,,0.12,WeatherDisplay:10.37,2013-07-13 01:58:00,
2013-07-12 22:03:00,77.5,72.0,29.98,SE,135,4.6,4.6,83,0.00,BKN,,0.12,WeatherDisplay:10.37,2013-07-13 02:03:00,
2013-07-12 22:08:00,77.5,72.0,29.98,SSE,158,4.6,4.6,83,0.00,BKN,,0.12,WeatherDisplay:10.37,2013-07-13 02:08:00,
2013-07-12 22:13:00,77.5,72.0,29.98,South,180,3.5,3.5,83,0.00,BKN,,0.12,WeatherDisplay:10.37,2013-07-13 02:13:00,
2013-07-12 22:19:00,77.5,72.0,29.98,SSE,158,3.8,3.8,83,0.00,BKN,,0.12,WeatherDisplay:10.37,2013-07-13 02:19:00,
2013-07-12 22:24:00,77.5,72.0,29.99,SE,135,4.6,4.6,83,0.00,BKN,,0.12,WeatherDisplay:10.37,2013-07-13 02:24:00,
2013-07-12 22:29:00,77.5,72.0,29.99,SE,135,4.6,4.6,83,0.00,BKN,,0.12,WeatherDisplay:10.37,2013-07-13 02:29:00,
2013-07-12 22:34:00,77.5,72.0,29.99,SSE,158,3.5,3.5,83,0.00,BKN,,0.12,WeatherDisplay:10.37,2013-07-13 02:34:00,
2013-07-12 22:39:00,77.4,71.8,29.99,SE,135,2.3,2.3,83,0.00,BKN,,0.12,WeatherDisplay:10.37,2013-07-13 02:39:00,
2013-07-12 22:44:00,77.4,71.8,30.00,SE,135,3.5,3.5,83,0.00,BKN,,0.12,WeatherDisplay:10.37,2013-07-13 02:44:00,
2013-07-12 22:49:00,77.4,72.1,29.99,SE,135,3.5,3.5,84,0.00,BKN,,0.12,WeatherDisplay:10.37,2013-07-13 02:49:00,
2013-07-12 22:55:00,77.4,72.1,29.99,SE,135,2.3,2.3,84,0.00,BKN,,0.12,WeatherDisplay:10.37,2013-07-13 02:55:00,
2013-07-12 23:00:00,77.4,72.1,29.99,SE,139,1.0,5.0,84,0.00,BKN,BKN,0.12,WeatherDisplay:10.37,2013-07-13 03:00:00,
2013-07-12 23:05:00,77.4,72.5,29.99,ESE,112,2.3,2.3,85,0.00,BKN,,0.12,WeatherDisplay:10.37,2013-07-13 03:05:00,
2013-07-12 23:10:00,77.4,72.5,29.99,SE,135,3.5,3.5,85,0.00,BKN,,0.12,WeatherDisplay:10.37,2013-07-13 03:10:00,
2013-07-12 23:15:00,77.4,72.5,29.99,SE,135,2.3,2.3,85,0.00,BKN,,0.12,WeatherDisplay:10.37,2013-07-13 03:15:00,
2013-07-12 23:20:00,77.3,72.4,29.99,SE,135,1.0,3.0,85,0.00,BKN,BKN,0.12,WeatherDisplay:10.37,2013-07-13 03:20:00,
2013-07-12 23:25:00,77.2,72.3,30.00,SE,144,1.0,3.0,85,0.00,BKN,BKN,0.12,WeatherDisplay:10.37,2013-07-13 03:25:00,
2013-07-12 23:30:00,77.2,72.3,29.99,SE,135,2.3,2.3,85,0.00,BKN,,0.12,WeatherDisplay:10.37,2013-07-13 03:30:00,
2013-07-12 23:35:00,77.2,72.3,29.99,SE,135,3.3,3.3,85,0.00,BKN,,0.12,WeatherDisplay:10.37,2013-07-13 03:35:00,
2013-07-12 23:41:00,77.2,72.3,30.00,SSE,158,3.5,3.5,85,0.00,BKN,,0.12,WeatherDisplay:10.37,2013-07-13 03:41:00,
2013-07-12 23:46:00,77.2,72.3,30.00,SSE,158,3.6,3.6,85,0.00,BKN,,0.12,WeatherDisplay:10.37,2013-07-13 03:46:00,
2013-07-12 23:51:00,77.2,72.3,29.99,SSE,158,2.3,2.3,85,0.00,BKN,,0.12,WeatherDisplay:10.37,2013-07-13 03:51:00,
2013-07-12 23:56:00,77.0,72.1,30.00,SE,135,2.3,3.1,85,0.00,BKN,,0.12,WeatherDisplay:10.37,2013-07-13 03:56:00,